Skip Navigation LinksHome page > Weather > Current weather Skip Navigation Links

Current Weather

New Tokyo International (Narita), Tokyo

For information only: do not use for flight planning or navigation.
Latest weather
Observation time Thursday, March 5, 2015 3:00 AM JST
Local time Thursday, March 5, 2015 3:42 AM JST
Flight conditions Low Instrument Meteorological Conditions
Winds
Wind direction North-Northeast (20°)
Wind speed 6 mph
Visibility 6.2 mi.
Sky condition
Ceiling 0 ft. broken clouds
Cloud layer broken clouds 0 ft.
Cloud layer few clouds 2,000 ft.
Temperature 43°F
Dewpoint 39°F
Altimeter 29.80 in.Hg
Derived measurements
Relative humidity 87%
Wind chill 39°F
Density altitude -677 ft.
Remarks
No significant changes expected in the next two hours.
METAR RJAA 041800Z 02005KT 9999 FEW020 BKN/// 06/04 Q1009 NOSIG RMK 1SC020 A2981

Settings

Location code

InnerDrive.Weather 4.0.5505.0 Release CLR 4.0.30319.34014
Copyright ©2015 Inner Drive Technology. All rights reserved. Portions Copyright ©1986-2015 David Braverman.

Find weather

Site navigation


Skip Navigation Links

Place info

Page info

PayPal - The safer, easier way to pay online!

Return home.

Copyright ©2015 Inner Drive Technology. Purveyors of fine, hand-crafted computer software. Page printed 2015-03-04T18:42:25 UTC.